sensor_id;sensor_type;location;lat;lon;timestamp;temperature;humidity
71304;DHT22;59091;47.446;19.148;2023-06-04T00:00:03;16.88;50.78
71304;DHT22;59091;47.446;19.148;2023-06-04T00:02:28;16.84;51.41
71304;DHT22;59091;47.446;19.148;2023-06-04T00:04:54;16.78;48.26
71304;DHT22;59091;47.446;19.148;2023-06-04T00:07:19;16.78;49.98
71304;DHT22;59091;47.446;19.148;2023-06-04T00:09:45;16.79;51.07
71304;DHT22;59091;47.446;19.148;2023-06-04T00:12:12;16.84;51.43
71304;DHT22;59091;47.446;19.148;2023-06-04T00:14:38;16.78;50.99
71304;DHT22;59091;47.446;19.148;2023-06-04T00:17:03;16.76;51.34
71304;DHT22;59091;47.446;19.148;2023-06-04T00:19:30;16.75;51.38
71304;DHT22;59091;47.446;19.148;2023-06-04T00:21:55;16.75;50.15
71304;DHT22;59091;47.446;19.148;2023-06-04T00:24:20;16.75;51.01
71304;DHT22;59091;47.446;19.148;2023-06-04T00:26:46;16.76;51.89
71304;DHT22;59091;47.446;19.148;2023-06-04T00:29:11;16.79;51.57
71304;DHT22;59091;47.446;19.148;2023-06-04T00:31:37;16.76;52.12
71304;DHT22;59091;47.446;19.148;2023-06-04T00:34:05;16.79;52.24
71304;DHT22;59091;47.446;19.148;2023-06-04T00:36:31;16.79;52.43
71304;DHT22;59091;47.446;19.148;2023-06-04T00:38:56;16.82;52.34
71304;DHT22;59091;47.446;19.148;2023-06-04T00:41:22;16.84;52.53
71304;DHT22;59091;47.446;19.148;2023-06-04T00:43:47;16.78;52.29
71304;DHT22;59091;47.446;19.148;2023-06-04T00:46:25;16.68;51.18
71304;DHT22;59091;47.446;19.148;2023-06-04T00:48:51;16.68;52.03
71304;DHT22;59091;47.446;19.148;2023-06-04T00:51:18;16.65;52.38
71304;DHT22;59091;47.446;19.148;2023-06-04T00:53:43;16.67;52.77
71304;DHT22;59091;47.446;19.148;2023-06-04T00:56:09;16.65;52.61
71304;DHT22;59091;47.446;19.148;2023-06-04T00:58:38;16.63;53.66
71304;DHT22;59091;47.446;19.148;2023-06-04T01:03:47;16.64;54.72
71304;DHT22;59091;47.446;19.148;2023-06-04T01:06:38;16.61;55.17
71304;DHT22;59091;47.446;19.148;2023-06-04T01:09:05;16.63;54.81
71304;DHT22;59091;47.446;19.148;2023-06-04T01:11:35;16.64;54.55
71304;DHT22;59091;47.446;19.148;2023-06-04T01:14:02;16.61;54.43
71304;DHT22;59091;47.446;19.148;2023-06-04T01:16:31;16.64;53.52
71304;DHT22;59091;47.446;19.148;2023-06-04T01:19:02;16.58;53.85
71304;DHT22;59091;47.446;19.148;2023-06-04T01:21:30;16.54;54.61
71304;DHT22;59091;47.446;19.148;2023-06-04T01:24:01;16.50;54.41
71304;DHT22;59091;47.446;19.148;2023-06-04T01:26:30;16.50;54.69
71304;DHT22;59091;47.446;19.148;2023-06-04T01:28:57;16.45;54.91
71304;DHT22;59091;47.446;19.148;2023-06-04T01:31:24;16.44;55.24
71304;DHT22;59091;47.446;19.148;2023-06-04T01:33:56;16.41;55.39
71304;DHT22;59091;47.446;19.148;2023-06-04T01:36:23;16.41;55.12
71304;DHT22;59091;47.446;19.148;2023-06-04T01:38:49;16.41;55.17
71304;DHT22;59091;47.446;19.148;2023-06-04T01:41:14;16.38;55.52
71304;DHT22;59091;47.446;19.148;2023-06-04T01:43:40;16.33;55.55
71304;DHT22;59091;47.446;19.148;2023-06-04T01:46:05;16.31;55.63
71304;DHT22;59091;47.446;19.148;2023-06-04T01:48:31;16.30;56.12
71304;DHT22;59091;47.446;19.148;2023-06-04T01:51:00;16.30;56.71
71304;DHT22;59091;47.446;19.148;2023-06-04T01:53:27;16.33;56.74
71304;DHT22;59091;47.446;19.148;2023-06-04T01:55:52;16.28;56.65
71304;DHT22;59091;47.446;19.148;2023-06-04T01:58:18;16.30;56.52
71304;DHT22;59091;47.446;19.148;2023-06-04T02:00:49;16.31;56.70
71304;DHT22;59091;47.446;19.148;2023-06-04T02:03:15;16.31;56.90
71304;DHT22;59091;47.446;19.148;2023-06-04T02:05:40;16.33;56.66
71304;DHT22;59091;47.446;19.148;2023-06-04T02:08:06;16.27;56.83
71304;DHT22;59091;47.446;19.148;2023-06-04T02:10:31;16.27;56.76
71304;DHT22;59091;47.446;19.148;2023-06-04T02:12:59;16.28;56.32
71304;DHT22;59091;47.446;19.148;2023-06-04T02:15:26;16.24;56.50
71304;DHT22;59091;47.446;19.148;2023-06-04T02:17:56;16.24;56.42
71304;DHT22;59091;47.446;19.148;2023-06-04T02:20:23;16.24;56.92
71304;DHT22;59091;47.446;19.148;2023-06-04T02:22:48;16.25;56.57
71304;DHT22;59091;47.446;19.148;2023-06-04T02:25:14;16.25;56.74
71304;DHT22;59091;47.446;19.148;2023-06-04T02:27:40;16.23;57.02
71304;DHT22;59091;47.446;19.148;2023-06-04T02:30:06;16.18;56.27
71304;DHT22;59091;47.446;19.148;2023-06-04T02:32:32;16.17;56.59
71304;DHT22;59091;47.446;19.148;2023-06-04T02:34:58;16.18;56.60
71304;DHT22;59091;47.446;19.148;2023-06-04T02:37:24;16.12;56.46
71304;DHT22;59091;47.446;19.148;2023-06-04T02:39:50;16.12;57.02
71304;DHT22;59091;47.446;19.148;2023-06-04T02:42:15;16.10;57.24
71304;DHT22;59091;47.446;19.148;2023-06-04T02:44:41;16.10;57.51
71304;DHT22;59091;47.446;19.148;2023-06-04T02:47:07;16.10;57.79
71304;DHT22;59091;47.446;19.148;2023-06-04T02:49:33;16.07;56.95
71304;DHT22;59091;47.446;19.148;2023-06-04T02:51:58;16.09;57.51
71304;DHT22;59091;47.446;19.148;2023-06-04T02:54:24;16.10;57.82
71304;DHT22;59091;47.446;19.148;2023-06-04T02:56:49;16.10;58.16
71304;DHT22;59091;47.446;19.148;2023-06-04T02:59:15;16.10;57.92
71304;DHT22;59091;47.446;19.148;2023-06-04T03:01:40;16.17;57.80
71304;DHT22;59091;47.446;19.148;2023-06-04T03:04:06;16.20;57.14
71304;DHT22;59091;47.446;19.148;2023-06-04T03:06:35;16.18;56.39
71304;DHT22;59091;47.446;19.148;2023-06-04T03:09:03;16.14;54.86
71304;DHT22;59091;47.446;19.148;2023-06-04T03:11:29;16.16;55.99
71304;DHT22;59091;47.446;19.148;2023-06-04T03:13:54;16.17;56.68
71304;DHT22;59091;47.446;19.148;2023-06-04T03:16:20;16.17;54.89
71304;DHT22;59091;47.446;19.148;2023-06-04T03:18:46;16.16;53.75
71304;DHT22;59091;47.446;19.148;2023-06-04T03:21:11;15.79;50.95
71304;DHT22;59091;47.446;19.148;2023-06-04T03:23:37;15.93;53.05
71304;DHT22;59091;47.446;19.148;2023-06-04T03:26:03;16.00;54.20
71304;DHT22;59091;47.446;19.148;2023-06-04T03:28:30;16.07;53.00
71304;DHT22;59091;47.446;19.148;2023-06-04T03:30:55;16.16;53.97
71304;DHT22;59091;47.446;19.148;2023-06-04T03:33:21;16.23;53.99
71304;DHT22;59091;47.446;19.148;2023-06-04T03:35:46;16.31;53.62
71304;DHT22;59091;47.446;19.148;2023-06-04T03:38:14;16.40;55.10
71304;DHT22;59091;47.446;19.148;2023-06-04T03:40:40;16.48;55.24
71304;DHT22;59091;47.446;19.148;2023-06-04T03:43:05;16.60;54.34
71304;DHT22;59091;47.446;19.148;2023-06-04T03:45:31;16.71;54.98
71304;DHT22;59091;47.446;19.148;2023-06-04T03:47:56;16.74;52.34
71304;DHT22;59091;47.446;19.148;2023-06-04T03:50:22;16.44;49.33
71304;DHT22;59091;47.446;19.148;2023-06-04T03:52:50;16.16;48.67
71304;DHT22;59091;47.446;19.148;2023-06-04T03:55:16;16.27;49.54
71304;DHT22;59091;47.446;19.148;2023-06-04T03:57:42;16.51;51.09
71304;DHT22;59091;47.446;19.148;2023-06-04T04:00:08;16.54;48.54
71304;DHT22;59091;47.446;19.148;2023-06-04T04:02:37;16.76;49.40
71304;DHT22;59091;47.446;19.148;2023-06-04T04:05:03;16.98;49.67
71304;DHT22;59091;47.446;19.148;2023-06-04T04:07:28;17.16;50.80
71304;DHT22;59091;47.446;19.148;2023-06-04T04:09:54;17.36;50.75
71304;DHT22;59091;47.446;19.148;2023-06-04T04:12:19;17.46;49.00
71304;DHT22;59091;47.446;19.148;2023-06-04T04:14:45;17.57;48.59
71304;DHT22;59091;47.446;19.148;2023-06-04T04:17:12;17.64;48.49
71304;DHT22;59091;47.446;19.148;2023-06-04T04:19:38;17.73;48.78
71304;DHT22;59091;47.446;19.148;2023-06-04T04:22:03;17.77;48.48
71304;DHT22;59091;47.446;19.148;2023-06-04T04:24:29;17.77;46.78
71304;DHT22;59091;47.446;19.148;2023-06-04T04:26:54;17.86;48.36
71304;DHT22;59091;47.446;19.148;2023-06-04T04:29:23;17.98;49.23
71304;DHT22;59091;47.446;19.148;2023-06-04T04:31:50;18.05;50.10
71304;DHT22;59091;47.446;19.148;2023-06-04T04:34:16;18.11;49.71
71304;DHT22;59091;47.446;19.148;2023-06-04T04:36:42;18.07;47.87
71304;DHT22;59091;47.446;19.148;2023-06-04T04:39:09;18.14;48.20
71304;DHT22;59091;47.446;19.148;2023-06-04T04:41:35;18.21;48.30
71304;DHT22;59091;47.446;19.148;2023-06-04T04:44:04;18.38;47.50
71304;DHT22;59091;47.446;19.148;2023-06-04T04:46:30;18.41;46.47
71304;DHT22;59091;47.446;19.148;2023-06-04T04:48:56;18.39;44.45
71304;DHT22;59091;47.446;19.148;2023-06-04T04:51:21;18.66;45.49
71304;DHT22;59091;47.446;19.148;2023-06-04T04:53:47;18.75;43.00
71304;DHT22;59091;47.446;19.148;2023-06-04T04:56:13;18.85;42.99
71304;DHT22;59091;47.446;19.148;2023-06-04T04:58:38;18.51;42.48
71304;DHT22;59091;47.446;19.148;2023-06-04T05:01:04;18.59;42.63
71304;DHT22;59091;47.446;19.148;2023-06-04T05:03:29;18.68;41.55
71304;DHT22;59091;47.446;19.148;2023-06-04T05:05:55;18.56;41.09
71304;DHT22;59091;47.446;19.148;2023-06-04T05:08:20;18.69;41.54
71304;DHT22;59091;47.446;19.148;2023-06-04T05:10:46;18.87;42.02
71304;DHT22;59091;47.446;19.148;2023-06-04T05:13:12;18.89;40.78
71304;DHT22;59091;47.446;19.148;2023-06-04T05:15:38;18.82;40.88
71304;DHT22;59091;47.446;19.148;2023-06-04T05:18:05;18.93;41.25
71304;DHT22;59091;47.446;19.148;2023-06-04T05:20:30;19.09;42.99
71304;DHT22;59091;47.446;19.148;2023-06-04T05:22:56;19.06;42.63
71304;DHT22;59091;47.446;19.148;2023-06-04T05:25:22;19.00;42.07
71304;DHT22;59091;47.446;19.148;2023-06-04T05:27:47;19.00;40.87
71304;DHT22;59091;47.446;19.148;2023-06-04T05:30:14;19.06;41.14
71304;DHT22;59091;47.446;19.148;2023-06-04T05:32:40;19.10;42.68
71304;DHT22;59091;47.446;19.148;2023-06-04T05:35:07;19.10;40.34
71304;DHT22;59091;47.446;19.148;2023-06-04T05:37:33;19.14;41.44
71304;DHT22;59091;47.446;19.148;2023-06-04T05:40:03;19.14;40.10
71304;DHT22;59091;47.446;19.148;2023-06-04T05:42:30;19.46;43.42
71304;DHT22;59091;47.446;19.148;2023-06-04T05:44:55;19.71;43.40
71304;DHT22;59091;47.446;19.148;2023-06-04T05:47:21;19.85;40.77
71304;DHT22;59091;47.446;19.148;2023-06-04T05:49:47;19.83;41.47
71304;DHT22;59091;47.446;19.148;2023-06-04T05:52:13;19.67;39.71
71304;DHT22;59091;47.446;19.148;2023-06-04T05:54:38;19.72;39.37
71304;DHT22;59091;47.446;19.148;2023-06-04T05:57:04;19.86;41.22
71304;DHT22;59091;47.446;19.148;2023-06-04T05:59:31;19.69;40.21
71304;DHT22;59091;47.446;19.148;2023-06-04T06:01:57;19.83;40.17
71304;DHT22;59091;47.446;19.148;2023-06-04T06:04:22;19.96;39.61
71304;DHT22;59091;47.446;19.148;2023-06-04T06:06:48;19.69;40.10
71304;DHT22;59091;47.446;19.148;2023-06-04T06:09:16;19.81;39.83
71304;DHT22;59091;47.446;19.148;2023-06-04T06:11:42;19.86;39.80
71304;DHT22;59091;47.446;19.148;2023-06-04T06:14:07;19.74;40.17
71304;DHT22;59091;47.446;19.148;2023-06-04T06:16:33;19.91;40.88
71304;DHT22;59091;47.446;19.148;2023-06-04T06:19:00;20.25;39.71
71304;DHT22;59091;47.446;19.148;2023-06-04T06:21:26;20.80;41.20
71304;DHT22;59091;47.446;19.148;2023-06-04T06:23:53;21.17;39.75
71304;DHT22;59091;47.446;19.148;2023-06-04T06:26:18;21.34;37.99
71304;DHT22;59091;47.446;19.148;2023-06-04T06:28:44;22.18;40.85
71304;DHT22;59091;47.446;19.148;2023-06-04T06:31:09;22.45;37.51
71304;DHT22;59091;47.446;19.148;2023-06-04T06:33:35;22.71;35.23
71304;DHT22;59091;47.446;19.148;2023-06-04T06:36:02;22.79;35.33
71304;DHT22;59091;47.446;19.148;2023-06-04T06:38:27;22.41;35.76
71304;DHT22;59091;47.446;19.148;2023-06-04T06:40:53;22.48;35.74
71304;DHT22;59091;47.446;19.148;2023-06-04T06:43:18;22.24;36.05
71304;DHT22;59091;47.446;19.148;2023-06-04T06:45:44;22.36;38.88
71304;DHT22;59091;47.446;19.148;2023-06-04T06:48:09;22.54;36.98
71304;DHT22;59091;47.446;19.148;2023-06-04T06:50:35;22.96;37.01
71304;DHT22;59091;47.446;19.148;2023-06-04T06:53:02;23.64;37.98
71304;DHT22;59091;47.446;19.148;2023-06-04T06:55:27;24.11;36.11
71304;DHT22;59091;47.446;19.148;2023-06-04T06:57:52;24.34;34.94
71304;DHT22;59091;47.446;19.148;2023-06-04T07:00:18;24.77;34.40
71304;DHT22;59091;47.446;19.148;2023-06-04T07:02:44;25.28;33.78
71304;DHT22;59091;47.446;19.148;2023-06-04T07:05:10;25.77;32.10
71304;DHT22;59091;47.446;19.148;2023-06-04T07:07:35;25.71;32.10
71304;DHT22;59091;47.446;19.148;2023-06-04T07:10:01;25.85;32.94
71304;DHT22;59091;47.446;19.148;2023-06-04T07:12:29;25.73;31.15
71304;DHT22;59091;47.446;19.148;2023-06-04T07:14:54;25.48;32.06
71304;DHT22;59091;47.446;19.148;2023-06-04T07:17:21;25.38;33.31
71304;DHT22;59091;47.446;19.148;2023-06-04T07:19:46;25.84;32.00
71304;DHT22;59091;47.446;19.148;2023-06-04T07:22:12;26.15;32.28
71304;DHT22;59091;47.446;19.148;2023-06-04T07:24:37;26.05;31.01
71304;DHT22;59091;47.446;19.148;2023-06-04T07:27:12;26.24;30.16
71304;DHT22;59091;47.446;19.148;2023-06-04T07:29:37;26.24;31.48
71304;DHT22;59091;47.446;19.148;2023-06-04T07:32:03;26.22;32.41
71304;DHT22;59091;47.446;19.148;2023-06-04T07:34:29;26.28;33.26
71304;DHT22;59091;47.446;19.148;2023-06-04T07:36:55;26.59;32.77
71304;DHT22;59091;47.446;19.148;2023-06-04T07:39:20;26.72;32.77
71304;DHT22;59091;47.446;19.148;2023-06-04T07:41:46;26.63;32.68
71304;DHT22;59091;47.446;19.148;2023-06-04T07:44:12;26.29;31.82
71304;DHT22;59091;47.446;19.148;2023-06-04T07:46:37;26.50;32.41
71304;DHT22;59091;47.446;19.148;2023-06-04T07:49:03;26.05;33.59
71304;DHT22;59091;47.446;19.148;2023-06-04T07:51:28;26.06;33.38
71304;DHT22;59091;47.446;19.148;2023-06-04T07:53:53;26.09;33.46
71304;DHT22;59091;47.446;19.148;2023-06-04T07:56:19;25.95;33.37
71304;DHT22;59091;47.446;19.148;2023-06-04T07:58:44;25.95;32.67
71304;DHT22;59091;47.446;19.148;2023-06-04T08:01:12;25.99;32.85
71304;DHT22;59091;47.446;19.148;2023-06-04T08:03:37;26.14;32.67
71304;DHT22;59091;47.446;19.148;2023-06-04T08:06:03;26.42;31.00
71304;DHT22;59091;47.446;19.148;2023-06-04T08:08:29;26.26;32.03
71304;DHT22;59091;47.446;19.148;2023-06-04T08:10:54;26.06;30.28
71304;DHT22;59091;47.446;19.148;2023-06-04T08:13:20;26.46;30.99
71304;DHT22;59091;47.446;19.148;2023-06-04T08:15:46;26.69;29.65
71304;DHT22;59091;47.446;19.148;2023-06-04T08:18:11;26.97;30.87
71304;DHT22;59091;47.446;19.148;2023-06-04T08:20:37;27.48;28.43
71304;DHT22;59091;47.446;19.148;2023-06-04T08:23:02;27.82;29.96
71304;DHT22;59091;47.446;19.148;2023-06-04T08:25:28;27.95;28.82
71304;DHT22;59091;47.446;19.148;2023-06-04T08:27:54;28.29;27.32
71304;DHT22;59091;47.446;19.148;2023-06-04T08:30:20;28.68;28.16
71304;DHT22;59091;47.446;19.148;2023-06-04T08:32:46;29.07;27.53
71304;DHT22;59091;47.446;19.148;2023-06-04T08:35:11;29.18;25.36
71304;DHT22;59091;47.446;19.148;2023-06-04T08:37:37;29.08;26.71
71304;DHT22;59091;47.446;19.148;2023-06-04T08:40:03;29.19;26.62
71304;DHT22;59091;47.446;19.148;2023-06-04T08:42:31;29.49;26.45
71304;DHT22;59091;47.446;19.148;2023-06-04T08:44:58;29.43;24.68
71304;DHT22;59091;47.446;19.148;2023-06-04T08:47:24;29.28;26.67
71304;DHT22;59091;47.446;19.148;2023-06-04T08:49:52;29.23;24.64
71304;DHT22;59091;47.446;19.148;2023-06-04T08:52:17;28.57;25.80
71304;DHT22;59091;47.446;19.148;2023-06-04T08:54:49;28.27;28.02
71304;DHT22;59091;47.446;19.148;2023-06-04T08:57:17;28.00;28.57
71304;DHT22;59091;47.446;19.148;2023-06-04T08:59:45;28.27;27.75
71304;DHT22;59091;47.446;19.148;2023-06-04T09:02:12;28.40;26.76
71304;DHT22;59091;47.446;19.148;2023-06-04T09:04:40;28.35;27.74
71304;DHT22;59091;47.446;19.148;2023-06-04T09:07:06;28.39;27.45
71304;DHT22;59091;47.446;19.148;2023-06-04T09:09:37;28.29;28.62
71304;DHT22;59091;47.446;19.148;2023-06-04T09:12:03;28.05;27.70
71304;DHT22;59091;47.446;19.148;2023-06-04T09:14:31;27.54;27.74
71304;DHT22;59091;47.446;19.148;2023-06-04T09:16:57;27.65;28.38
71304;DHT22;59091;47.446;19.148;2023-06-04T09:19:24;27.51;29.03
71304;DHT22;59091;47.446;19.148;2023-06-04T09:21:57;26.98;30.15
71304;DHT22;59091;47.446;19.148;2023-06-04T09:24:24;26.73;30.77
71304;DHT22;59091;47.446;19.148;2023-06-04T09:26:51;26.43;30.94
71304;DHT22;59091;47.446;19.148;2023-06-04T09:29:17;26.29;29.76
71304;DHT22;59091;47.446;19.148;2023-06-04T09:31:47;26.25;31.75
71304;DHT22;59091;47.446;19.148;2023-06-04T09:34:12;26.14;30.59
71304;DHT22;59091;47.446;19.148;2023-06-04T09:36:38;25.57;31.90
71304;DHT22;59091;47.446;19.148;2023-06-04T09:39:15;25.57;32.37
71304;DHT22;59091;47.446;19.148;2023-06-04T09:41:40;25.68;32.55
71304;DHT22;59091;47.446;19.148;2023-06-04T09:44:06;25.60;32.72
71304;DHT22;59091;47.446;19.148;2023-06-04T09:46:35;25.67;32.16
71304;DHT22;59091;47.446;19.148;2023-06-04T09:49:04;25.63;32.28
71304;DHT22;59091;47.446;19.148;2023-06-04T09:51:30;25.61;31.48
71304;DHT22;59091;47.446;19.148;2023-06-04T09:54:00;25.50;32.58
71304;DHT22;59091;47.446;19.148;2023-06-04T09:56:27;25.64;33.06
71304;DHT22;59091;47.446;19.148;2023-06-04T09:58:59;25.92;32.65
71304;DHT22;59091;47.446;19.148;2023-06-04T10:01:29;25.98;32.69
71304;DHT22;59091;47.446;19.148;2023-06-04T10:03:57;25.81;33.01
71304;DHT22;59091;47.446;19.148;2023-06-04T10:06:25;25.67;33.04
71304;DHT22;59091;47.446;19.148;2023-06-04T10:08:51;25.67;33.91
71304;DHT22;59091;47.446;19.148;2023-06-04T10:11:26;25.58;34.16
71304;DHT22;59091;47.446;19.148;2023-06-04T10:14:02;25.30;34.84
71304;DHT22;59091;47.446;19.148;2023-06-04T10:16:28;25.38;34.73
71304;DHT22;59091;47.446;19.148;2023-06-04T10:18:56;25.33;34.56
71304;DHT22;59091;47.446;19.148;2023-06-04T10:21:22;25.06;35.17
71304;DHT22;59091;47.446;19.148;2023-06-04T10:23:49;25.14;34.85
71304;DHT22;59091;47.446;19.148;2023-06-04T10:26:15;25.16;35.66
71304;DHT22;59091;47.446;19.148;2023-06-04T10:28:42;25.24;35.24
71304;DHT22;59091;47.446;19.148;2023-06-04T10:31:11;25.34;34.03
71304;DHT22;59091;47.446;19.148;2023-06-04T10:33:37;25.33;35.76
71304;DHT22;59091;47.446;19.148;2023-06-04T10:36:17;25.41;36.03
71304;DHT22;59091;47.446;19.148;2023-06-04T10:38:48;25.50;35.69
71304;DHT22;59091;47.446;19.148;2023-06-04T10:41:18;25.54;35.89
71304;DHT22;59091;47.446;19.148;2023-06-04T10:43:50;25.71;36.34
71304;DHT22;59091;47.446;19.148;2023-06-04T10:46:19;25.82;34.59
71304;DHT22;59091;47.446;19.148;2023-06-04T10:48:52;25.99;36.32
71304;DHT22;59091;47.446;19.148;2023-06-04T10:51:31;25.94;35.24
71304;DHT22;59091;47.446;19.148;2023-06-04T10:53:58;26.01;35.83
71304;DHT22;59091;47.446;19.148;2023-06-04T10:56:28;26.11;34.63
71304;DHT22;59091;47.446;19.148;2023-06-04T10:58:54;26.28;34.53
71304;DHT22;59091;47.446;19.148;2023-06-04T11:01:24;26.52;34.97
71304;DHT22;59091;47.446;19.148;2023-06-04T11:03:50;26.59;34.48
71304;DHT22;59091;47.446;19.148;2023-06-04T11:06:17;26.77;32.30
71304;DHT22;59091;47.446;19.148;2023-06-04T11:08:43;26.46;32.06
71304;DHT22;59091;47.446;19.148;2023-06-04T11:11:12;26.56;34.18
71304;DHT22;59091;47.446;19.148;2023-06-04T11:13:39;26.86;32.34
71304;DHT22;59091;47.446;19.148;2023-06-04T11:16:17;27.03;31.64
71304;DHT22;59091;47.446;19.148;2023-06-04T11:18:43;26.96;29.60
71304;DHT22;59091;47.446;19.148;2023-06-04T11:21:08;27.20;32.26
71304;DHT22;59091;47.446;19.148;2023-06-04T11:23:36;26.98;29.62
71304;DHT22;59091;47.446;19.148;2023-06-04T11:26:02;27.30;30.30
71304;DHT22;59091;47.446;19.148;2023-06-04T11:28:27;27.52;31.88
71304;DHT22;59091;47.446;19.148;2023-06-04T11:30:59;27.45;28.93
71304;DHT22;59091;47.446;19.148;2023-06-04T11:33:27;27.72;30.53
71304;DHT22;59091;47.446;19.148;2023-06-04T11:35:54;27.88;30.73
71304;DHT22;59091;47.446;19.148;2023-06-04T11:38:19;27.62;27.45
71304;DHT22;59091;47.446;19.148;2023-06-04T11:40:55;27.62;28.40
71304;DHT22;59091;47.446;19.148;2023-06-04T11:43:20;27.65;30.71
71304;DHT22;59091;47.446;19.148;2023-06-04T11:45:46;27.42;31.31
71304;DHT22;59091;47.446;19.148;2023-06-04T11:48:12;27.11;29.50
71304;DHT22;59091;47.446;19.148;2023-06-04T11:50:37;26.98;32.33
71304;DHT22;59091;47.446;19.148;2023-06-04T11:53:03;26.77;32.86
71304;DHT22;59091;47.446;19.148;2023-06-04T11:55:28;26.47;32.60
71304;DHT22;59091;47.446;19.148;2023-06-04T11:57:54;26.63;33.08
71304;DHT22;59091;47.446;19.148;2023-06-04T12:00:20;26.28;34.34
71304;DHT22;59091;47.446;19.148;2023-06-04T12:02:54;26.18;34.85
71304;DHT22;59091;47.446;19.148;2023-06-04T12:05:20;25.86;35.64
71304;DHT22;59091;47.446;19.148;2023-06-04T12:07:48;25.96;35.45
71304;DHT22;59091;47.446;19.148;2023-06-04T12:10:19;26.15;35.03
71304;DHT22;59091;47.446;19.148;2023-06-04T12:12:44;26.02;35.09
71304;DHT22;59091;47.446;19.148;2023-06-04T12:15:10;26.19;34.58
71304;DHT22;59091;47.446;19.148;2023-06-04T12:17:36;26.02;34.30
71304;DHT22;59091;47.446;19.148;2023-06-04T12:20:05;25.91;34.65
71304;DHT22;59091;47.446;19.148;2023-06-04T12:22:31;25.98;33.64
71304;DHT22;59091;47.446;19.148;2023-06-04T12:24:57;26.06;35.77
71304;DHT22;59091;47.446;19.148;2023-06-04T12:27:25;26.24;36.38
71304;DHT22;59091;47.446;19.148;2023-06-04T12:30:01;25.88;35.26
71304;DHT22;59091;47.446;19.148;2023-06-04T12:32:27;25.92;36.31
71304;DHT22;59091;47.446;19.148;2023-06-04T12:34:53;25.92;34.76
71304;DHT22;59091;47.446;19.148;2023-06-04T12:37:19;25.96;34.46
71304;DHT22;59091;47.446;19.148;2023-06-04T12:39:45;26.06;34.53
71304;DHT22;59091;47.446;19.148;2023-06-04T12:42:10;26.33;31.83
71304;DHT22;59091;47.446;19.148;2023-06-04T12:44:37;26.39;31.31
71304;DHT22;59091;47.446;19.148;2023-06-04T12:47:03;26.32;29.26
71304;DHT22;59091;47.446;19.148;2023-06-04T12:49:28;26.15;29.70
71304;DHT22;59091;47.446;19.148;2023-06-04T12:51:54;25.98;29.41
71304;DHT22;59091;47.446;19.148;2023-06-04T12:54:19;26.29;31.68
71304;DHT22;59091;47.446;19.148;2023-06-04T12:56:45;26.50;32.36
71304;DHT22;59091;47.446;19.148;2023-06-04T12:59:11;26.77;31.59
71304;DHT22;59091;47.446;19.148;2023-06-04T13:01:36;26.52;29.00
71304;DHT22;59091;47.446;19.148;2023-06-04T13:04:04;26.50;29.59
71304;DHT22;59091;47.446;19.148;2023-06-04T13:06:31;26.45;29.63
71304;DHT22;59091;47.446;19.148;2023-06-04T13:08:56;26.47;30.90
71304;DHT22;59091;47.446;19.148;2023-06-04T13:11:22;26.29;29.84
71304;DHT22;59091;47.446;19.148;2023-06-04T13:13:47;26.45;29.75
71304;DHT22;59091;47.446;19.148;2023-06-04T13:16:13;26.47;30.38
71304;DHT22;59091;47.446;19.148;2023-06-04T13:18:39;25.91;29.52
71304;DHT22;59091;47.446;19.148;2023-06-04T13:21:04;26.11;29.43
71304;DHT22;59091;47.446;19.148;2023-06-04T13:23:30;25.99;29.54
71304;DHT22;59091;47.446;19.148;2023-06-04T13:25:55;26.19;29.84
71304;DHT22;59091;47.446;19.148;2023-06-04T13:28:21;26.40;29.77
71304;DHT22;59091;47.446;19.148;2023-06-04T13:30:46;26.40;30.62
71304;DHT22;59091;47.446;19.148;2023-06-04T13:33:12;26.53;30.21
71304;DHT22;59091;47.446;19.148;2023-06-04T13:35:37;26.67;30.60
71304;DHT22;59091;47.446;19.148;2023-06-04T13:38:06;26.29;30.24
71304;DHT22;59091;47.446;19.148;2023-06-04T13:40:34;26.45;30.56
71304;DHT22;59091;47.446;19.148;2023-06-04T13:42:59;26.60;30.11
71304;DHT22;59091;47.446;19.148;2023-06-04T13:45:24;26.66;30.23
71304;DHT22;59091;47.446;19.148;2023-06-04T13:47:50;26.39;30.40
71304;DHT22;59091;47.446;19.148;2023-06-04T13:50:16;26.64;30.20
71304;DHT22;59091;47.446;19.148;2023-06-04T13:52:41;26.55;29.89
71304;DHT22;59091;47.446;19.148;2023-06-04T13:55:07;26.67;30.76
71304;DHT22;59091;47.446;19.148;2023-06-04T13:57:33;26.52;30.22
71304;DHT22;59091;47.446;19.148;2023-06-04T13:59:58;26.16;30.60
71304;DHT22;59091;47.446;19.148;2023-06-04T14:02:24;26.06;30.35
71304;DHT22;59091;47.446;19.148;2023-06-04T14:04:50;26.12;30.59
71304;DHT22;59091;47.446;19.148;2023-06-04T14:07:16;25.91;30.44
71304;DHT22;59091;47.446;19.148;2023-06-04T14:09:42;25.95;31.88
71304;DHT22;59091;47.446;19.148;2023-06-04T14:12:08;25.96;30.84
71304;DHT22;59091;47.446;19.148;2023-06-04T14:14:34;26.12;31.76
71304;DHT22;59091;47.446;19.148;2023-06-04T14:17:06;26.01;31.28
71304;DHT22;59091;47.446;19.148;2023-06-04T14:19:34;26.15;30.98
71304;DHT22;59091;47.446;19.148;2023-06-04T14:22:00;26.28;30.80
71304;DHT22;59091;47.446;19.148;2023-06-04T14:24:26;26.37;31.09
71304;DHT22;59091;47.446;19.148;2023-06-04T14:26:51;26.45;30.99
71304;DHT22;59091;47.446;19.148;2023-06-04T14:29:17;26.24;30.89
71304;DHT22;59091;47.446;19.148;2023-06-04T14:31:42;26.11;30.76
71304;DHT22;59091;47.446;19.148;2023-06-04T14:34:09;25.95;31.27
71304;DHT22;59091;47.446;19.148;2023-06-04T14:36:34;25.80;31.53
71304;DHT22;59091;47.446;19.148;2023-06-04T14:39:00;25.75;32.06
71304;DHT22;59091;47.446;19.148;2023-06-04T14:41:25;25.67;32.06
71304;DHT22;59091;47.446;19.148;2023-06-04T14:43:52;25.54;32.00
71304;DHT22;59091;47.446;19.148;2023-06-04T14:46:17;25.44;32.26
71304;DHT22;59091;47.446;19.148;2023-06-04T14:48:43;25.27;32.20
71304;DHT22;59091;47.446;19.148;2023-06-04T14:51:09;25.04;32.46
71304;DHT22;59091;47.446;19.148;2023-06-04T14:53:34;24.86;33.13
71304;DHT22;59091;47.446;19.148;2023-06-04T14:56:00;25.00;33.62
71304;DHT22;59091;47.446;19.148;2023-06-04T14:58:25;25.02;33.98
71304;DHT22;59091;47.446;19.148;2023-06-04T15:00:51;24.82;34.10
71304;DHT22;59091;47.446;19.148;2023-06-04T15:03:16;24.83;33.60
71304;DHT22;59091;47.446;19.148;2023-06-04T15:05:42;24.86;33.92
71304;DHT22;59091;47.446;19.148;2023-06-04T15:08:07;24.73;33.89
71304;DHT22;59091;47.446;19.148;2023-06-04T15:10:33;24.73;34.08
71304;DHT22;59091;47.446;19.148;2023-06-04T15:12:59;24.77;34.26